Time;durP1;ratioP1;P1;durP2;ratioP2;P2;SDS_P1;SDS_P2;PMS_P1;PMS_P2;Temp;Humidity;BMP_temperature;BMP_pressure;BME280_temperature;BME280_humidity;BME280_pressure;Samples;Min_cycle;Max_cycle;Signal;HPM_P1;HPM_P2
2021/10/31 00:01:20;;;;;;;;;;;;;;;15.68;55.61;100170.38;4881559;28;98295;-56
2021/10/31 00:03:46;;;;;;;;;;;;;;;15.67;55.33;100180.44;4883943;28;128399;-56
2021/10/31 00:06:11;;;;;;;;;;;;;;;15.67;55.47;100175.00;4882272;28;128751;-56
2021/10/31 00:08:37;;;;;;;;;;;;;;;15.66;55.41;100170.69;4884371;28;126682;-57
2021/10/31 00:11:04;;;;;;;;;;;;;;;15.64;55.40;100172.88;4884009;28;118248;-64
2021/10/31 00:13:29;;;;;;;;;;;;;;;15.65;55.59;100171.00;4855769;28;98392;-56
2021/10/31 00:15:55;;;;;;;;;;;;;;;15.64;55.40;100174.78;4864709;28;111968;-64
2021/10/31 00:18:21;;;;;;;;;;;;;;;15.64;55.71;100182.91;4864391;28;128237;-57
2021/10/31 00:20:47;;;;;;;;;;;;;;;15.63;55.82;100181.31;4865132;28;97843;-57
2021/10/31 00:23:13;;;;;;;;;;;;;;;15.63;55.70;100184.03;4865165;28;115331;-57
2021/10/31 00:25:39;;;;;;;;;;;;;;;15.62;55.32;100187.88;4865336;28;127839;-64
2021/10/31 00:28:05;;;;;;;;;;;;;;;15.61;55.30;100186.28;4874958;28;102806;-58
2021/10/31 00:30:31;;;;;;;;;;;;;;;15.60;55.61;100199.06;4883191;28;117964;-56
2021/10/31 00:32:57;;;;;;;;;;;;;;;15.60;55.60;100190.09;4875141;28;122935;-56
2021/10/31 00:35:23;;;;;;;;;;;;;;;15.58;55.59;100189.59;4885195;28;109044;-57
2021/10/31 00:37:49;;;;;;;;;;;;;;;15.59;55.62;100194.72;4877010;28;128355;-58
2021/10/31 00:40:15;;;;;;;;;;;;;;;15.59;55.64;100199.34;4865400;28;97785;-64
2021/10/31 00:42:41;;;;;;;;;;;;;;;15.58;55.60;100197.75;4864478;28;109832;-64
2021/10/31 00:45:07;;;;;;;;;;;;;;;15.58;55.71;100203.19;4864799;28;99539;-56
2021/10/31 00:47:33;;;;;;;;;;;;;;;15.57;55.82;100199.66;4865537;28;107926;-56
2021/10/31 00:49:59;;;;;;;;;;;;;;;15.55;55.84;100201.88;4865371;28;97948;-57
2021/10/31 00:52:26;;;;;;;;;;;;;;;15.55;55.80;100195.63;4865287;28;108662;-64
2021/10/31 00:54:52;;;;;;;;;;;;;;;15.55;56.15;100201.06;4864786;28;114665;-62
2021/10/31 00:57:18;;;;;;;;;;;;;;;15.54;55.79;100199.47;4871687;28;97908;-64
2021/10/31 00:59:44;;;;;;;;;;;;;;;15.53;55.94;100201.38;4864822;28;117785;-56
2021/10/31 01:02:12;;;;;;;;;;;;;;;15.53;55.75;100203.31;4865480;28;99304;-64
2021/10/31 01:04:45;;;;;;;;;;;;;;;15.52;55.86;100205.19;4865855;28;98500;-64
2021/10/31 01:07:28;;;;;;;;;;;;;;;15.52;56.07;100196.25;4864549;28;97818;-64
2021/10/31 01:10:06;;;;;;;;;;;;;;;15.50;56.13;100191.13;4852555;28;97917;-64
2021/10/31 01:12:50;;;;;;;;;;;;;;;15.50;56.15;100187.63;4861738;28;119657;-57
2021/10/31 01:15:43;;;;;;;;;;;;;;;15.50;56.08;100191.13;4865789;28;98451;-56
2021/10/31 01:18:29;;;;;;;;;;;;;;;15.50;56.17;100199.28;4847259;28;98290;-57
2021/10/31 01:21:29;;;;;;;;;;;;;;;15.52;55.89;100196.25;4847149;28;110522;-57
2021/10/31 01:24:14;;;;;;;;;;;;;;;15.50;55.58;100207.44;4864467;28;99416;-64
2021/10/31 01:26:52;;;;;;;;;;;;;;;15.52;56.12;100207.91;4864006;28;120963;-56
2021/10/31 01:29:37;;;;;;;;;;;;;;;15.53;56.00;100206.03;4864875;28;97963;-63
2021/10/31 01:32:09;;;;;;;;;;;;;;;15.53;56.23;100211.47;4865004;28;98075;-57
2021/10/31 01:35:00;;;;;;;;;;;;;;;15.54;56.00;100213.06;4865215;28;98312;-64
2021/10/31 01:37:29;;;;;;;;;;;;;;;15.53;56.08;100214.97;4838734;28;98460;-64
2021/10/31 01:40:27;;;;;;;;;;;;;;;15.54;55.74;100213.06;4864561;28;98903;-64
2021/10/31 01:42:58;;;;;;;;;;;;;;;15.54;55.62;100210.34;4848327;28;98314;-56
2021/10/31 01:45:36;;;;;;;;;;;;;;;15.54;55.75;100218.50;4864289;28;98429;-64
2021/10/31 01:48:16;;;;;;;;;;;;;;;15.53;56.14;100208.75;4831880;28;98781;-56
2021/10/31 01:50:45;;;;;;;;;;;;;;;15.52;56.07;100213.34;4864145;28;98055;-64
2021/10/31 01:53:30;;;;;;;;;;;;;;;15.53;55.96;100216.88;4846873;28;97942;-63
2021/10/31 01:56:09;;;;;;;;;;;;;;;15.50;55.87;100226.44;4848384;28;98735;-56
2021/10/31 01:58:38;;;;;;;;;;;;;;;15.50;55.91;100225.66;4846260;28;117292;-56
2021/10/31 02:01:05;;;;;;;;;;;;;;;15.49;55.95;100229.47;4846181;28;118048;-58
2021/10/31 02:03:32;;;;;;;;;;;;;;;15.47;56.10;100224.34;4847942;28;98092;-56
2021/10/31 02:05:59;;;;;;;;;;;;;;;15.45;55.68;100224.66;4856743;28;98240;-64
2021/10/31 02:08:26;;;;;;;;;;;;;;;15.44;56.06;100214.91;4846781;28;99014;-64
2021/10/31 02:10:52;;;;;;;;;;;;;;;15.43;56.16;100220.63;4882870;28;98775;-58
2021/10/31 02:13:18;;;;;;;;;;;;;;;15.42;55.82;100224.44;4865778;28;97801;-56
2021/10/31 02:15:46;;;;;;;;;;;;;;;15.40;56.04;100223.94;4864740;28;98774;-64
2021/10/31 02:18:12;;;;;;;;;;;;;;;15.39;55.77;100225.84;4883009;28;115852;-56
2021/10/31 02:20:42;;;;;;;;;;;;;;;15.38;55.89;100226.97;4865268;28;98277;-57
2021/10/31 02:23:08;;;;;;;;;;;;;;;15.38;56.01;100228.88;4864656;28;98142;-64
2021/10/31 02:25:37;;;;;;;;;;;;;;;15.37;55.91;100222.66;4865087;28;99009;-64
2021/10/31 02:28:03;;;;;;;;;;;;;;;15.38;55.95;100235.13;4881626;28;124989;-57
2021/10/31 02:30:29;;;;;;;;;;;;;;;15.37;55.96;100232.72;4866448;28;101066;-57
2021/10/31 02:32:55;;;;;;;;;;;;;;;15.38;55.92;100226.16;4863388;28;115627;-56
2021/10/31 02:35:21;;;;;;;;;;;;;;;15.37;55.87;100228.09;4863778;28;99753;-64
2021/10/31 02:37:47;;;;;;;;;;;;;;;15.37;55.76;100236.22;4865281;28;97757;-56
2021/10/31 02:40:15;;;;;;;;;;;;;;;15.37;55.98;100233.53;4863794;28;98187;-64
2021/10/31 02:42:41;;;;;;;;;;;;;;;15.38;55.98;100239.75;4863526;28;98021;-64
2021/10/31 02:45:07;;;;;;;;;;;;;;;15.38;55.64;100237.03;4864358;28;98985;-64
2021/10/31 02:48:04;;;;;;;;;;;;;;;15.39;55.66;100241.34;4863817;28;97997;-57
2021/10/31 02:50:37;;;;;;;;;;;;;;;15.37;55.92;100244.38;4862485;28;97941;-56
2021/10/31 02:53:20;;;;;;;;;;;;;;;15.38;55.63;100243.25;4847133;28;98223;-57
2021/10/31 02:56:04;;;;;;;;;;;;;;;15.39;55.87;100242.16;4846462;28;98785;-56
2021/10/31 02:58:37;;;;;;;;;;;;;;;15.39;55.72;100244.88;4863573;28;98875;-56
2021/10/31 03:01:04;;;;;;;;;;;;;;;15.38;55.72;100248.69;4829572;28;121814;-56
2021/10/31 03:03:31;;;;;;;;;;;;;;;15.40;56.04;100254.63;4862101;28;114306;-56
2021/10/31 03:05:57;;;;;;;;;;;;;;;15.39;55.85;100255.72;4867997;28;108602;-56
2021/10/31 03:08:27;;;;;;;;;;;;;;;15.40;55.96;100251.91;4848003;28;98224;-64
2021/10/31 03:10:55;;;;;;;;;;;;;;;15.40;55.99;100245.66;4866506;28;122802;-64
2021/10/31 03:13:21;;;;;;;;;;;;;;;15.40;56.04;100248.38;4867169;28;97890;-57
2021/10/31 03:15:47;;;;;;;;;;;;;;;15.39;55.89;100244.06;4871356;28;98129;-64
2021/10/31 03:18:13;;;;;;;;;;;;;;;15.39;55.95;100242.16;4886189;28;107274;-59
2021/10/31 03:20:39;;;;;;;;;;;;;;;15.39;55.89;100239.44;4884250;28;127818;-64
2021/10/31 03:23:05;;;;;;;;;;;;;;;15.38;56.04;100239.75;4866801;28;114490;-63
2021/10/31 03:25:31;;;;;;;;;;;;;;;15.39;55.72;100249.50;4866093;28;101867;-64
2021/10/31 03:27:57;;;;;;;;;;;;;;;15.38;55.73;100237.84;4866809;28;102048;-64
2021/10/31 03:30:22;;;;;;;;;;;;;;;15.37;55.62;100241.66;4864848;28;126946;-57
2021/10/31 03:32:48;;;;;;;;;;;;;;;15.38;55.56;100243.25;4876005;28;112344;-64
2021/10/31 03:35:14;;;;;;;;;;;;;;;15.37;55.47;100247.09;4851110;28;114083;-59
2021/10/31 03:37:42;;;;;;;;;;;;;;;15.36;55.96;100253.63;4870581;28;128377;-57
2021/10/31 03:40:09;;;;;;;;;;;;;;;15.35;55.73;100262.06;4884946;28;98199;-57
2021/10/31 03:42:35;;;;;;;;;;;;;;;15.34;55.79;100272.13;4885271;28;98819;-64
2021/10/31 03:45:01;;;;;;;;;;;;;;;15.34;55.98;100268.63;4884827;28;98515;-56
2021/10/31 03:47:28;;;;;;;;;;;;;;;15.33;55.87;100264.31;4885935;28;98884;-57
2021/10/31 03:49:54;;;;;;;;;;;;;;;15.32;55.83;100251.81;4884192;28;97866;-56
2021/10/31 03:52:20;;;;;;;;;;;;;;;15.30;56.28;100254.03;4883849;28;118435;-56
2021/10/31 03:54:46;;;;;;;;;;;;;;;15.31;55.96;100271.94;4885612;28;98095;-57
2021/10/31 03:57:12;;;;;;;;;;;;;;;15.30;55.72;100265.72;4884196;28;128322;-56
2021/10/31 03:59:38;;;;;;;;;;;;;;;15.29;56.05;100274.13;4884939;28;126392;-57
2021/10/31 04:02:04;;;;;;;;;;;;;;;15.29;55.90;100266.81;4865937;28;98300;-64
2021/10/31 04:04:31;;;;;;;;;;;;;;;15.29;56.38;100257.84;4882729;28;98765;-64
2021/10/31 04:06:57;;;;;;;;;;;;;;;15.28;56.26;100261.69;4885882;28;98975;-57
2021/10/31 04:09:22;;;;;;;;;;;;;;;15.29;56.25;100274.13;4868703;28;128009;-64
2021/10/31 04:11:48;;;;;;;;;;;;;;;15.28;55.90;100273.34;4865373;28;113185;-56
2021/10/31 04:14:15;;;;;;;;;;;;;;;15.27;56.30;100274.47;4847206;28;99779;-64
2021/10/31 04:16:40;;;;;;;;;;;;;;;15.26;56.41;100274.78;4866162;28;99168;-63
2021/10/31 04:19:06;;;;;;;;;;;;;;;15.26;56.36;100280.19;4865271;28;125009;-64
2021/10/31 04:21:32;;;;;;;;;;;;;;;15.26;55.98;100270.13;4864415;28;99566;-57
2021/10/31 04:23:58;;;;;;;;;;;;;;;15.25;56.09;100273.13;4864916;28;128538;-56
2021/10/31 04:26:24;;;;;;;;;;;;;;;15.23;56.24;100284.31;4864770;28;102468;-64
2021/10/31 04:28:50;;;;;;;;;;;;;;;15.22;56.15;100272.66;4864653;28;126766;-63
2021/10/31 04:31:16;;;;;;;;;;;;;;;15.20;56.28;100283.00;4860370;28;98064;-63
2021/10/31 04:33:43;;;;;;;;;;;;;;;15.20;56.16;100279.47;4883042;28;128200;-64
2021/10/31 04:36:09;;;;;;;;;;;;;;;15.19;56.40;100280.59;4884674;28;97847;-57
2021/10/31 04:38:35;;;;;;;;;;;;;;;15.16;56.06;100287.41;4885205;28;97792;-56
2021/10/31 04:41:01;;;;;;;;;;;;;;;15.15;56.31;100285.03;4882372;28;97836;-58
2021/10/31 04:43:27;;;;;;;;;;;;;;;15.14;56.13;100280.72;4883265;28;98411;-57
2021/10/31 04:45:53;;;;;;;;;;;;;;;15.12;56.40;100280.19;4884130;28;98282;-56
2021/10/31 04:48:21;;;;;;;;;;;;;;;15.11;56.31;100289.44;4874859;28;98220;-64
2021/10/31 04:50:47;;;;;;;;;;;;;;;15.11;56.54;100289.44;4865263;28;97887;-63
2021/10/31 04:53:13;;;;;;;;;;;;;;;15.10;56.20;100287.84;4864233;28;128113;-57
2021/10/31 04:55:39;;;;;;;;;;;;;;;15.08;56.65;100290.84;4864746;28;104024;-64
2021/10/31 04:58:06;;;;;;;;;;;;;;;15.08;56.56;100281.91;4838621;28;98694;-64
2021/10/31 05:00:32;;;;;;;;;;;;;;;15.05;56.40;100286.03;4865668;28;98001;-56
2021/10/31 05:02:58;;;;;;;;;;;;;;;15.05;56.24;100282.50;4864369;28;98806;-56
2021/10/31 05:05:24;;;;;;;;;;;;;;;15.04;56.42;100283.59;4864883;28;99226;-62
2021/10/31 05:07:55;;;;;;;;;;;;;;;15.02;56.24;100281.22;4864358;28;98599;-56
2021/10/31 05:10:22;;;;;;;;;;;;;;;15.01;56.41;100282.28;4864728;28;97783;-63
2021/10/31 05:12:48;;;;;;;;;;;;;;;15.00;56.55;100277.97;4865729;28;98941;-65
2021/10/31 05:15:14;;;;;;;;;;;;;;;14.98;56.52;100272.84;4863516;28;99037;-56
2021/10/31 05:17:41;;;;;;;;;;;;;;;14.98;56.47;100269.34;4882148;28;112732;-64
2021/10/31 05:20:08;;;;;;;;;;;;;;;14.98;56.74;100272.06;4883653;28;97929;-56
2021/10/31 05:22:34;;;;;;;;;;;;;;;14.96;56.74;100274.25;4883747;28;110074;-57
2021/10/31 05:25:00;;;;;;;;;;;;;;;14.95;56.79;100273.47;4883298;28;118553;-56
2021/10/31 05:27:25;;;;;;;;;;;;;;;14.95;56.79;100268.03;4872851;28;128600;-64
2021/10/31 05:29:51;;;;;;;;;;;;;;;14.94;56.60;100274.56;4864686;28;116397;-64
2021/10/31 05:32:17;;;;;;;;;;;;;;;14.93;56.62;100272.97;4864753;28;128427;-64
2021/10/31 05:34:43;;;;;;;;;;;;;;;14.93;57.18;100278.41;4877698;28;128346;-64
2021/10/31 05:37:09;;;;;;;;;;;;;;;14.93;56.99;100280.28;4864916;28;98055;-64
2021/10/31 05:39:35;;;;;;;;;;;;;;;14.93;57.03;100286.53;4865163;28;98074;-56
2021/10/31 05:42:01;;;;;;;;;;;;;;;14.92;56.97;100282.19;4862743;28;127890;-64
2021/10/31 05:44:27;;;;;;;;;;;;;;;14.91;56.71;100279.78;4881771;28;123402;-64
2021/10/31 05:46:53;;;;;;;;;;;;;;;14.92;57.02;100290.34;4882094;28;98288;-64
2021/10/31 05:49:19;;;;;;;;;;;;;;;14.92;56.88;100282.19;4864666;28;118904;-64
2021/10/31 05:51:45;;;;;;;;;;;;;;;14.91;56.93;100277.88;4881953;28;114739;-63
2021/10/31 05:54:11;;;;;;;;;;;;;;;14.91;56.75;100275.16;4883402;28;98708;-64
2021/10/31 05:56:37;;;;;;;;;;;;;;;14.92;57.05;100275.97;4846235;28;127323;-64
2021/10/31 05:59:03;;;;;;;;;;;;;;;14.92;56.59;100278.69;4863647;28;114843;-64
2021/10/31 06:01:29;;;;;;;;;;;;;;;14.92;56.65;100289.53;4863035;28;123816;-64
2021/10/31 06:03:56;;;;;;;;;;;;;;;14.92;56.77;100286.81;4872767;28;129212;-64
2021/10/31 06:06:23;;;;;;;;;;;;;;;14.93;56.71;100293.84;4884036;28;98056;-64
2021/10/31 06:08:49;;;;;;;;;;;;;;;14.93;56.94;100291.97;4883050;28;97857;-64
2021/10/31 06:11:16;;;;;;;;;;;;;;;14.95;56.76;100297.09;4882051;28;123040;-63
2021/10/31 06:13:42;;;;;;;;;;;;;;;14.97;56.62;100295.69;4880683;28;116421;-64
2021/10/31 06:16:08;;;;;;;;;;;;;;;14.97;56.52;100298.41;4882045;28;126425;-63
2021/10/31 06:18:34;;;;;;;;;;;;;;;14.98;56.55;100301.91;4864766;28;97755;-64
2021/10/31 06:21:01;;;;;;;;;;;;;;;15.01;56.44;100300.50;4882325;28;98401;-63
2021/10/31 06:23:27;;;;;;;;;;;;;;;15.03;56.35;100298.28;4877676;28;99003;-64
2021/10/31 06:25:53;;;;;;;;;;;;;;;15.04;56.78;100297.19;4865364;28;116576;-64
2021/10/31 06:28:19;;;;;;;;;;;;;;;15.06;56.51;100297.69;4876064;28;97944;-64
2021/10/31 06:30:45;;;;;;;;;;;;;;;15.09;56.55;100299.78;4890069;28;114673;-64
2021/10/31 06:33:11;;;;;;;;;;;;;;;15.11;56.41;100311.97;4882216;28;129726;-64
2021/10/31 06:35:36;;;;;;;;;;;;;;;15.13;56.39;100306.22;4893419;28;98500;-63
2021/10/31 06:38:03;;;;;;;;;;;;;;;15.16;56.53;100311.84;4893485;28;116823;-64
2021/10/31 06:40:29;;;;;;;;;;;;;;;15.19;56.64;100300.41;4893269;28;98243;-63
2021/10/31 06:42:55;;;;;;;;;;;;;;;15.25;56.29;100297.56;4889957;28;98885;-64
2021/10/31 06:45:20;;;;;;;;;;;;;;;15.30;56.25;100294.78;4890255;28;97917;-63
2021/10/31 06:47:46;;;;;;;;;;;;;;;15.33;56.53;100311.28;4897329;28;118700;-63
2021/10/31 06:50:12;;;;;;;;;;;;;;;15.34;56.52;100309.34;4893725;28;129306;-63
2021/10/31 06:52:38;;;;;;;;;;;;;;;15.40;56.34;100313.56;4870461;28;128294;-64
2021/10/31 06:55:06;;;;;;;;;;;;;;;15.43;56.15;100313.75;4879468;28;117054;-64
2021/10/31 06:57:32;;;;;;;;;;;;;;;15.46;56.26;100321.31;4891053;28;97874;-64
2021/10/31 06:59:58;;;;;;;;;;;;;;;15.50;55.89;100323.44;4897681;28;128517;-64
2021/10/31 07:02:24;;;;;;;;;;;;;;;15.55;56.26;100321.41;4888762;28;128976;-64
2021/10/31 07:04:50;;;;;;;;;;;;;;;15.61;56.12;100316.69;4890039;28;103779;-64
2021/10/31 07:07:16;;;;;;;;;;;;;;;15.68;56.45;100315.19;4893091;28;117156;-64
2021/10/31 07:09:42;;;;;;;;;;;;;;;15.71;56.29;100330.06;4893428;28;98168;-64
2021/10/31 07:12:08;;;;;;;;;;;;;;;15.77;56.15;100328.06;4887842;28;98755;-64
2021/10/31 07:14:34;;;;;;;;;;;;;;;15.82;56.22;100323.28;4890092;28;109565;-63
2021/10/31 07:17:00;;;;;;;;;;;;;;;15.87;56.17;100330.53;4888212;28;97984;-64
2021/10/31 07:19:26;;;;;;;;;;;;;;;15.89;56.42;100331.03;4897346;28;114519;-64
2021/10/31 07:21:57;;;;;;;;;;;;;;;15.91;56.42;100334.25;4881347;28;127622;-64
2021/10/31 07:24:23;;;;;;;;;;;;;;;15.92;56.29;100333.94;4887031;28;127796;-64
2021/10/31 07:26:49;;;;;;;;;;;;;;;15.94;56.29;100337.16;4892782;28;116972;-64
2021/10/31 07:29:15;;;;;;;;;;;;;;;15.95;56.62;100333.34;4897465;28;123212;-64
2021/10/31 07:31:43;;;;;;;;;;;;;;;15.95;56.33;100337.94;4897111;28;98991;-64
2021/10/31 07:34:11;;;;;;;;;;;;;;;15.98;56.38;100334.63;4868910;28;99405;-64
2021/10/31 07:36:37;;;;;;;;;;;;;;;16.00;56.38;100332.44;4894166;28;97991;-64
2021/10/31 07:39:03;;;;;;;;;;;;;;;16.03;56.39;100339.94;4889174;28;98805;-64
2021/10/31 07:41:29;;;;;;;;;;;;;;;16.11;56.03;100330.25;4897370;28;98265;-64
2021/10/31 07:43:55;;;;;;;;;;;;;;;16.27;55.81;100328.81;4892635;28;98215;-64
2021/10/31 07:46:21;;;;;;;;;;;;;;;16.34;55.82;100331.06;4896164;28;113227;-64
2021/10/31 07:48:47;;;;;;;;;;;;;;;16.53;55.68;100331.69;4889323;28;101156;-64
2021/10/31 07:51:13;;;;;;;;;;;;;;;16.66;55.63;100328.13;4893985;28;118852;-64
2021/10/31 07:53:42;;;;;;;;;;;;;;;16.94;54.95;100327.97;4891292;28;98129;-64
2021/10/31 07:56:10;;;;;;;;;;;;;;;17.29;54.53;100328.91;4901372;28;98359;-64
2021/10/31 07:58:36;;;;;;;;;;;;;;;17.59;54.04;100329.16;4897524;28;99004;-63
2021/10/31 08:01:04;;;;;;;;;;;;;;;17.96;53.48;100325.06;4892747;28;97847;-64
2021/10/31 08:03:30;;;;;;;;;;;;;;;18.48;52.75;100326.97;4897358;28;97774;-64
2021/10/31 08:05:55;;;;;;;;;;;;;;;18.73;52.59;100320.69;4898324;28;111589;-64
2021/10/31 08:08:22;;;;;;;;;;;;;;;19.01;52.56;100332.00;4899730;28;126049;-64
2021/10/31 08:10:49;;;;;;;;;;;;;;;19.78;51.21;100329.22;4901226;28;97845;-64
2021/10/31 08:13:25;;;;;;;;;;;;;;;19.99;51.14;100318.28;4868829;28;98299;-64
2021/10/31 08:15:52;;;;;;;;;;;;;;;19.80;51.52;100330.47;4882467;28;103170;-64
2021/10/31 08:18:18;;;;;;;;;;;;;;;19.88;51.77;100328.81;4887838;28;98916;-56
2021/10/31 08:20:43;;;;;;;;;;;;;;;19.83;51.90;100321.63;4894756;28;122207;-64
2021/10/31 08:23:10;;;;;;;;;;;;;;;19.90;52.08;100314.84;4899786;28;127092;-57
2021/10/31 08:25:36;;;;;;;;;;;;;;;20.22;51.59;100314.06;4892181;28;98178;-57
2021/10/31 08:28:04;;;;;;;;;;;;;;;20.68;50.79;100309.47;4893009;28;99629;-56
2021/10/31 08:30:31;;;;;;;;;;;;;;;21.25;50.03;100318.78;4901151;28;98767;-64
2021/10/31 08:32:59;;;;;;;;;;;;;;;21.36;50.25;100319.94;4899005;28;98378;-57
2021/10/31 08:35:25;;;;;;;;;;;;;;;21.13;50.90;100310.56;4896863;28;97768;-64
2021/10/31 08:37:51;;;;;;;;;;;;;;;21.19;51.10;100311.94;4895725;28;97865;-64
2021/10/31 08:40:16;;;;;;;;;;;;;;;21.12;51.37;100312.50;4896834;28;128976;-64
2021/10/31 08:42:42;;;;;;;;;;;;;;;21.25;51.28;100313.28;4889218;28;127260;-64
2021/10/31 08:45:09;;;;;;;;;;;;;;;21.62;50.74;100303.16;4891519;28;98036;-64
2021/10/31 08:47:35;;;;;;;;;;;;;;;21.75;50.90;100309.41;4895355;28;111566;-64
2021/10/31 08:50:02;;;;;;;;;;;;;;;22.01;50.79;100303.50;4898654;28;99912;-57
2021/10/31 08:52:28;;;;;;;;;;;;;;;22.19;50.92;100299.34;4897177;28;97893;-64
2021/10/31 08:54:54;;;;;;;;;;;;;;;22.33;50.98;100298.16;4898519;28;98031;-57
2021/10/31 08:57:20;;;;;;;;;;;;;;;22.46;51.13;100296.94;4896360;28;98907;-57
2021/10/31 08:59:46;;;;;;;;;;;;;;;22.59;51.30;100301.19;4888825;28;114624;-57
2021/10/31 09:02:12;;;;;;;;;;;;;;;22.81;51.31;100288.81;4895457;28;126370;-57
2021/10/31 09:04:39;;;;;;;;;;;;;;;23.07;51.17;100293.81;4893284;28;117549;-56
2021/10/31 09:07:07;;;;;;;;;;;;;;;23.30;51.22;100288.47;4892590;28;98174;-57
2021/10/31 09:09:33;;;;;;;;;;;;;;;23.66;50.50;100290.13;4899364;28;98212;-57
2021/10/31 09:11:59;;;;;;;;;;;;;;;23.63;50.93;100288.03;4897637;28;125635;-57
2021/10/31 09:14:25;;;;;;;;;;;;;;;23.60;51.24;100276.97;4884383;28;97791;-57
2021/10/31 09:16:51;;;;;;;;;;;;;;;23.69;50.86;100269.31;4873115;28;128852;-57
2021/10/31 09:19:17;;;;;;;;;;;;;;;23.72;51.43;100269.41;4892323;28;127019;-57
2021/10/31 09:21:44;;;;;;;;;;;;;;;23.73;51.08;100267.44;4898691;28;98392;-57
2021/10/31 09:24:10;;;;;;;;;;;;;;;23.62;51.57;100271.88;4877117;28;98206;-58
2021/10/31 09:26:36;;;;;;;;;;;;;;;23.47;51.73;100266.09;4892080;28;126159;-57
2021/10/31 09:29:02;;;;;;;;;;;;;;;23.29;52.03;100256.63;4892858;28;129358;-57
2021/10/31 09:31:28;;;;;;;;;;;;;;;23.10;52.10;100259.31;4897856;28;119119;-57
2021/10/31 09:33:55;;;;;;;;;;;;;;;22.91;52.33;100255.38;4884444;28;118108;-58
2021/10/31 09:36:21;;;;;;;;;;;;;;;22.75;52.18;100251.75;4885872;28;98871;-57
2021/10/31 09:38:48;;;;;;;;;;;;;;;22.61;52.45;100241.22;4897435;28;128960;-57
2021/10/31 09:41:14;;;;;;;;;;;;;;;22.51;52.36;100245.28;4897837;28;98105;-57
2021/10/31 09:43:49;;;;;;;;;;;;;;;22.45;52.42;100241.22;4886766;28;98240;-57
2021/10/31 09:46:15;;;;;;;;;;;;;;;22.49;52.15;100231.13;4884321;28;99397;-57
2021/10/31 09:48:41;;;;;;;;;;;;;;;22.55;52.12;100239.88;4892968;28;98209;-57
2021/10/31 09:51:07;;;;;;;;;;;;;;;22.50;52.32;100238.19;4899307;28;117455;-65
2021/10/31 09:53:33;;;;;;;;;;;;;;;22.53;52.14;100237.50;4898276;28;117291;-64
2021/10/31 09:56:00;;;;;;;;;;;;;;;22.63;52.27;100230.66;4898365;28;126798;-65
2021/10/31 09:58:33;;;;;;;;;;;;;;;22.65;52.11;100233.09;4895259;28;98852;-64
2021/10/31 10:01:05;;;;;;;;;;;;;;;22.62;52.58;100231.84;4890270;28;98295;-64
2021/10/31 10:06:19;;;;;;;;;;;;;;;22.52;52.71;100218.66;4890680;28;98111;-64
2021/10/31 10:09:00;;;;;;;;;;;;;;;22.45;52.67;100213.75;4898403;28;98812;-64
2021/10/31 10:11:26;;;;;;;;;;;;;;;22.37;53.07;100216.69;4897257;28;98131;-58
2021/10/31 10:13:53;;;;;;;;;;;;;;;22.26;53.09;100217.19;4889158;28;98112;-57
2021/10/31 10:16:21;;;;;;;;;;;;;;;22.20;53.12;100210.34;4890341;28;98924;-57
2021/10/31 10:18:47;;;;;;;;;;;;;;;22.16;53.15;100206.72;4887640;28;98680;-58
2021/10/31 10:21:17;;;;;;;;;;;;;;;22.05;53.20;100209.16;4898240;28;97996;-57
2021/10/31 10:23:52;;;;;;;;;;;;;;;22.03;53.30;100197.72;4896022;28;97926;-57
2021/10/31 10:26:33;;;;;;;;;;;;;;;22.14;52.99;100197.25;4885557;28;99149;-64
2021/10/31 10:29:17;;;;;;;;;;;;;;;22.26;52.92;100195.22;4890510;28;99190;-57
2021/10/31 10:31:45;;;;;;;;;;;;;;;22.33;52.85;100186.38;4898585;28;98226;-57
2021/10/31 10:34:11;;;;;;;;;;;;;;;22.29;52.76;100194.53;4888685;28;102693;-65
2021/10/31 10:36:45;;;;;;;;;;;;;;;22.55;52.25;100196.75;4898341;28;98713;-65
2021/10/31 10:39:13;;;;;;;;;;;;;;;22.38;53.08;100188.88;4891316;28;99089;-64
2021/10/31 10:41:48;;;;;;;;;;;;;;;22.79;52.03;100186.72;4893209;28;98475;-65
2021/10/31 10:44:21;;;;;;;;;;;;;;;23.21;51.47;100197.94;4887275;28;98141;-57
2021/10/31 10:46:49;;;;;;;;;;;;;;;23.43;51.31;100198.41;4890836;28;98621;-58
2021/10/31 10:49:20;;;;;;;;;;;;;;;22.98;52.43;100199.75;4898089;28;97879;-57
2021/10/31 10:51:46;;;;;;;;;;;;;;;22.86;52.64;100191.59;4898362;28;98298;-57
2021/10/31 10:54:16;;;;;;;;;;;;;;;23.05;52.35;100188.13;4898821;28;97909;-64
2021/10/31 10:57:02;;;;;;;;;;;;;;;22.97;52.48;100185.22;4897319;28;98901;-63
2021/10/31 10:59:28;;;;;;;;;;;;;;;22.72;53.03;100176.38;4898967;28;99039;-64
2021/10/31 11:02:13;;;;;;;;;;;;;;;22.58;53.60;100172.47;4897674;28;97976;-57
2021/10/31 11:04:40;;;;;;;;;;;;;;;22.55;53.21;100169.28;4898264;28;98082;-58
2021/10/31 11:07:07;;;;;;;;;;;;;;;22.58;53.21;100162.28;4897769;28;99534;-57
2021/10/31 11:09:43;;;;;;;;;;;;;;;22.66;53.29;100155.03;4897860;28;122565;-57
2021/10/31 11:12:29;;;;;;;;;;;;;;;22.62;53.51;100162.38;4897600;28;97935;-57
2021/10/31 11:15:00;;;;;;;;;;;;;;;22.59;53.46;100158.38;4880833;28;98399;-57
2021/10/31 11:17:26;;;;;;;;;;;;;;;22.63;53.54;100156.53;4897637;28;98576;-64
2021/10/31 11:19:53;;;;;;;;;;;;;;;22.72;53.49;100145.38;4897023;28;129030;-65
2021/10/31 11:22:20;;;;;;;;;;;;;;;22.72;53.56;100148.13;4898550;28;98151;-58
2021/10/31 11:24:47;;;;;;;;;;;;;;;22.69;53.77;100148.81;4898313;28;98078;-62
2021/10/31 11:27:18;;;;;;;;;;;;;;;22.68;53.64;100144.50;4897754;28;100010;-64
2021/10/31 11:29:45;;;;;;;;;;;;;;;22.70;53.70;100139.41;4881329;28;117864;-64
2021/10/31 11:32:12;;;;;;;;;;;;;;;22.65;53.96;100135.00;4900879;28;97990;-64
2021/10/31 11:34:42;;;;;;;;;;;;;;;22.66;53.86;100127.56;4901514;28;97802;-58
2021/10/31 11:37:08;;;;;;;;;;;;;;;22.60;53.97;100132.53;4866229;28;117773;-64
2021/10/31 11:39:34;;;;;;;;;;;;;;;22.54;54.32;100133.94;4901314;28;98787;-57
2021/10/31 11:42:00;;;;;;;;;;;;;;;22.51;54.11;100127.22;4866528;28;97918;-57
2021/10/31 11:44:29;;;;;;;;;;;;;;;22.45;54.25;100114.91;4883073;28;117593;-65
2021/10/31 11:46:55;;;;;;;;;;;;;;;22.40;54.31;100112.44;4882482;28;99292;-58
2021/10/31 11:49:21;;;;;;;;;;;;;;;22.34;54.53;100102.88;4882354;28;127930;-57
2021/10/31 11:51:48;;;;;;;;;;;;;;;22.28;54.70;100099.63;4899493;28;112250;-57
2021/10/31 11:54:16;;;;;;;;;;;;;;;22.19;54.76;100093.50;4900902;28;98043;-65
2021/10/31 11:56:50;;;;;;;;;;;;;;;22.08;54.87;100092.38;4900628;28;120013;-57
2021/10/31 11:59:16;;;;;;;;;;;;;;;22.01;55.15;100089.50;4900610;28;98685;-64
2021/10/31 12:01:45;;;;;;;;;;;;;;;21.93;55.01;100088.50;4900609;28;98157;-58
2021/10/31 12:04:11;;;;;;;;;;;;;;;21.84;55.18;100092.53;4901354;28;97938;-64
2021/10/31 12:06:42;;;;;;;;;;;;;;;21.75;55.17;100076.25;4900384;28;98038;-64
2021/10/31 12:09:22;;;;;;;;;;;;;;;21.65;55.14;100077.56;4882667;28;98576;-57
2021/10/31 12:11:48;;;;;;;;;;;;;;;21.52;55.28;100067.81;4900675;28;99101;-64
2021/10/31 12:14:14;;;;;;;;;;;;;;;21.41;55.38;100064.75;4901955;28;97933;-57
2021/10/31 12:16:56;;;;;;;;;;;;;;;21.32;55.28;100056.69;4899529;28;127804;-64
2021/10/31 12:19:23;;;;;;;;;;;;;;;21.25;55.23;100061.16;4900600;28;123185;-64
2021/10/31 12:22:03;;;;;;;;;;;;;;;21.20;55.24;100061.41;4882261;28;98660;-57
2021/10/31 12:24:35;;;;;;;;;;;;;;;21.11;55.29;100049.81;4900682;28;97697;-56
2021/10/31 12:27:09;;;;;;;;;;;;;;;21.04;55.30;100048.44;4900315;28;98035;-57
2021/10/31 12:29:36;;;;;;;;;;;;;;;20.98;55.39;100055.31;4901061;28;102964;-64
2021/10/31 12:32:04;;;;;;;;;;;;;;;20.90;55.48;100053.50;4900192;28;97937;-57
2021/10/31 12:34:35;;;;;;;;;;;;;;;20.82;55.42;100051.69;4901187;28;98103;-64
2021/10/31 12:37:22;;;;;;;;;;;;;;;20.75;55.39;100046.81;4899889;28;99026;-65
2021/10/31 12:40:12;;;;;;;;;;;;;;;20.70;55.40;100047.03;4900552;28;98624;-57
2021/10/31 12:42:54;;;;;;;;;;;;;;;20.63;55.40;100044.09;4899001;28;97990;-56